C. Angelo — WCZ5866 — position and weather

sailwx.info

Track history (hours):
 
Tides and Currents Weather Stations Pressure Air Temp Water Temp Dewpoint Dewpoint Depression Visibility Wind Speed Wind Dir Waves Ship Positions

C. Angelo

Owner: G T 110 INC, NEW HAVEN, CT. More information available from US FCC via Universal Licensing System and Coast Guard Vessel Documentation Center.

Last reported at 2016-Jul-23 01:17 UTC. Time now 2016-Jul-24 12:53 UTC.
Position N 40°52' W 073°57'.

Length 30 m; draft 4 m.

Type: Tug. MMSI: 366988420.

Date/timePositionNaut miles runAvg speedWind from/ knotsBaromVisibWave heightAir tempDewpointWater temp
2016-Jul-23 01:17N 40°52' W 073°57'4 4.9
2016-Jul-23 00:30N 40°48' W 073°59'6 6.0
2016-Jul-22 23:33N 40°43' W 074°01'6 5.5
2016-Jul-22 22:33N 40°37' W 074°03'5 5.4
2016-Jul-22 21:33N 40°32' W 074°01'4 4.3
2016-Jul-22 20:33N 40°30' W 073°56'4 3.9
2016-Jul-22 19:32N 40°27' W 073°54'28 6.9
2016-Jul-22 15:30N 39°59' W 073°57'7 7.0
2016-Jul-22 14:33N 39°52' W 073°57'7 6.7
2016-Jul-22 13:33N 39°46' W 073°58'7 6.9
2016-Jul-22 12:33N 39°39' W 074°02'7 7.2
2016-Jul-22 11:33N 39°33' W 074°06'7 7.0
2016-Jul-22 10:33N 39°27' W 074°10'7 7.0
2016-Jul-22 09:33N 39°20' W 074°14'7 7.0
2016-Jul-22 08:33N 39°14' W 074°17'7 7.1
2016-Jul-22 07:33N 39°07' W 074°21'14 7.1
2016-Jul-22 05:34N 38°55' W 074°28'7 6.8
2016-Jul-22 04:33N 38°48' W 074°32'28 7.1
2016-Jul-22 00:33N 38°21' W 074°43'7 6.9
2016-Jul-21 23:33N 38°15' W 074°47'95 6.7
2016-Jul-21 09:26N 36°56' W 075°53'7 7.2
2016-Jul-21 08:30N 36°57' W 076°01'  
2016-Jul-17 07:33N 36°59' W 076°06'7 5.9
2016-Jul-17 06:21N 36°57' W 075°58'114 6.8
2016-Jul-16 13:32N 38°32' W 074°38'7 6.9
2016-Jul-16 12:33N 38°39' W 074°36'14 6.6
2016-Jul-16 10:31N 38°52' W 074°30'14 7.3
2016-Jul-16 08:32N 39°05' W 074°22'7 7.4
2016-Jul-16 07:33N 39°11' W 074°19'8 7.8
2016-Jul-16 06:34N 39°18' W 074°14'15 7.6
2016-Jul-16 04:34N 39°32' W 074°06'8 7.7
2016-Jul-16 03:33N 39°39' W 074°02'8 7.6
2016-Jul-16 02:33N 39°46' W 073°58'8 7.8
2016-Jul-16 01:34N 39°54' W 073°57'34 8.6
2016-Jul-15 21:34N 40°28' W 073°54'7 7.5
2016-Jul-15 20:34N 40°33' W 074°02'7 7.1
2016-Jul-15 19:34N 40°40' W 074°03'6 6.4
2016-Jul-15 18:34N 40°45' W 073°58'  
Track history (hours):
 
Tides and Currents Weather Stations Pressure Air Temp Water Temp Dewpoint Dewpoint Depression Visibility Wind Speed Wind Dir Waves Ship Positions

C. Angelo

Owner: G T 110 INC, NEW HAVEN, CT. More information available from US FCC via Universal Licensing System and Coast Guard Vessel Documentation Center.

Last reported at 2016-Jul-23 01:17 UTC. Time now 2016-Jul-24 12:53 UTC.
Position N 40°52' W 073°57'.

Length 30 m; draft 4 m.

Type: Tug. MMSI: 366988420.

Date/timePositionNaut miles runAvg speedWind from/ knotsBaromVisibWave heightAir tempDewpointWater temp
2016-Jul-23 01:17N 40°52' W 073°57'4 4.9
2016-Jul-23 00:30N 40°48' W 073°59'6 6.0
2016-Jul-22 23:33N 40°43' W 074°01'6 5.5
2016-Jul-22 22:33N 40°37' W 074°03'5 5.4
2016-Jul-22 21:33N 40°32' W 074°01'4 4.3
2016-Jul-22 20:33N 40°30' W 073°56'4 3.9
2016-Jul-22 19:32N 40°27' W 073°54'28 6.9
2016-Jul-22 15:30N 39°59' W 073°57'7 7.0
2016-Jul-22 14:33N 39°52' W 073°57'7 6.7
2016-Jul-22 13:33N 39°46' W 073°58'7 6.9
2016-Jul-22 12:33N 39°39' W 074°02'7 7.2
2016-Jul-22 11:33N 39°33' W 074°06'7 7.0
2016-Jul-22 10:33N 39°27' W 074°10'7 7.0
2016-Jul-22 09:33N 39°20' W 074°14'7 7.0
2016-Jul-22 08:33N 39°14' W 074°17'7 7.1
2016-Jul-22 07:33N 39°07' W 074°21'14 7.1
2016-Jul-22 05:34N 38°55' W 074°28'7 6.8
2016-Jul-22 04:33N 38°48' W 074°32'28 7.1
2016-Jul-22 00:33N 38°21' W 074°43'7 6.9
2016-Jul-21 23:33N 38°15' W 074°47'95 6.7
2016-Jul-21 09:26N 36°56' W 075°53'7 7.2
2016-Jul-21 08:30N 36°57' W 076°01'  
2016-Jul-17 07:33N 36°59' W 076°06'7 5.9
2016-Jul-17 06:21N 36°57' W 075°58'114 6.8
2016-Jul-16 13:32N 38°32' W 074°38'7 6.9
2016-Jul-16 12:33N 38°39' W 074°36'14 6.6
2016-Jul-16 10:31N 38°52' W 074°30'14 7.3
2016-Jul-16 08:32N 39°05' W 074°22'7 7.4
2016-Jul-16 07:33N 39°11' W 074°19'8 7.8
2016-Jul-16 06:34N 39°18' W 074°14'15 7.6
2016-Jul-16 04:34N 39°32' W 074°06'8 7.7
2016-Jul-16 03:33N 39°39' W 074°02'8 7.6
2016-Jul-16 02:33N 39°46' W 073°58'8 7.8
2016-Jul-16 01:34N 39°54' W 073°57'34 8.6
2016-Jul-15 21:34N 40°28' W 073°54'7 7.5
2016-Jul-15 20:34N 40°33' W 074°02'7 7.1
2016-Jul-15 19:34N 40°40' W 074°03'6 6.4
2016-Jul-15 18:34N 40°45' W 073°58'  

Dump ship's entire track history